La Conner, Washington
Current Conditions -  °F | °C
As of 6:56 PM on Wednesday 22 Oct 2014 (Local Time) from KNUW Reporting Station
Overcast Overcast  
Wind Chill: 58°   Ceiling: 1000
Heat Index: 58°   Visibility: 10mi
Dew Point: 52°   Wind: 17mph
Humidity: 81%   Direction: 130°SE
Pressure: 29.51"   Gusts: 24mph
Location:  48.39°N, 122.5°W
Report Text: KNUW 230156Z 13015G21KT 10SM BKN010 BKN020 OVC040 14/11 A2951 RMK AO2 PK WND 12028/0122 RAE13 SLP997 P0000 T01440111
Loading
Personal Weather Stations






























Interactive Weather Map
Tropical Storm Tracking
New forecast layout! Learn more

10-Day Weather Forecast

Advertisements
Track Severe Weather on mobile